sensor_id;sensor_type;location;lat;lon;timestamp;P1;durP1;ratioP1;P2;durP2;ratioP2
68690;SDS011;55675;49.588;8.640;2022-08-19T00:00:16;12.83;;;11.53;;
68690;SDS011;55675;49.588;8.640;2022-08-19T00:02:42;15.50;;;12.73;;
68690;SDS011;55675;49.588;8.640;2022-08-19T00:05:09;14.30;;;12.83;;
68690;SDS011;55675;49.588;8.640;2022-08-19T00:07:36;12.47;;;11.17;;
68690;SDS011;55675;49.588;8.640;2022-08-19T00:10:02;14.00;;;12.50;;
68690;SDS011;55675;49.588;8.640;2022-08-19T00:12:29;13.30;;;11.90;;
68690;SDS011;55675;49.588;8.640;2022-08-19T00:14:55;11.90;;;10.70;;
68690;SDS011;55675;49.588;8.640;2022-08-19T00:17:20;13.77;;;11.57;;
68690;SDS011;55675;49.588;8.640;2022-08-19T00:19:46;12.80;;;11.50;;
68690;SDS011;55675;49.588;8.640;2022-08-19T00:22:11;13.03;;;11.63;;
68690;SDS011;55675;49.588;8.640;2022-08-19T00:24:37;12.27;;;11.07;;
68690;SDS011;55675;49.588;8.640;2022-08-19T00:27:03;14.20;;;12.43;;
68690;SDS011;55675;49.588;8.640;2022-08-19T00:29:29;13.67;;;12.17;;
68690;SDS011;55675;49.588;8.640;2022-08-19T00:31:56;14.07;;;12.27;;
68690;SDS011;55675;49.588;8.640;2022-08-19T00:34:23;14.70;;;13.10;;
68690;SDS011;55675;49.588;8.640;2022-08-19T00:36:51;13.87;;;12.20;;
68690;SDS011;55675;49.588;8.640;2022-08-19T00:39:16;13.43;;;11.90;;
68690;SDS011;55675;49.588;8.640;2022-08-19T00:41:43;13.77;;;12.00;;
68690;SDS011;55675;49.588;8.640;2022-08-19T00:44:12;13.10;;;11.80;;
68690;SDS011;55675;49.588;8.640;2022-08-19T00:46:42;13.27;;;11.87;;
68690;SDS011;55675;49.588;8.640;2022-08-19T00:49:11;14.00;;;12.37;;
68690;SDS011;55675;49.588;8.640;2022-08-19T00:51:42;13.10;;;11.70;;
68690;SDS011;55675;49.588;8.640;2022-08-19T00:54:11;12.87;;;11.43;;
68690;SDS011;55675;49.588;8.640;2022-08-19T00:56:37;14.70;;;11.90;;
68690;SDS011;55675;49.588;8.640;2022-08-19T00:59:03;13.23;;;11.93;;
68690;SDS011;55675;49.588;8.640;2022-08-19T01:01:33;12.90;;;11.57;;
68690;SDS011;55675;49.588;8.640;2022-08-19T01:04:03;12.97;;;11.63;;
68690;SDS011;55675;49.588;8.640;2022-08-19T01:06:29;13.57;;;11.93;;
68690;SDS011;55675;49.588;8.640;2022-08-19T01:08:57;15.27;;;12.10;;
68690;SDS011;55675;49.588;8.640;2022-08-19T01:11:24;12.97;;;11.57;;
68690;SDS011;55675;49.588;8.640;2022-08-19T01:13:52;12.67;;;11.27;;
68690;SDS011;55675;49.588;8.640;2022-08-19T01:16:18;14.97;;;13.07;;
68690;SDS011;55675;49.588;8.640;2022-08-19T01:18:46;14.73;;;11.30;;
68690;SDS011;55675;49.588;8.640;2022-08-19T01:21:16;13.30;;;11.90;;
68690;SDS011;55675;49.588;8.640;2022-08-19T01:23:49;13.07;;;11.37;;
68690;SDS011;55675;49.588;8.640;2022-08-19T01:26:16;14.40;;;11.87;;
68690;SDS011;55675;49.588;8.640;2022-08-19T01:28:45;13.20;;;11.87;;
68690;SDS011;55675;49.588;8.640;2022-08-19T01:31:15;13.83;;;12.37;;
68690;SDS011;55675;49.588;8.640;2022-08-19T01:33:43;13.50;;;12.07;;
68690;SDS011;55675;49.588;8.640;2022-08-19T01:36:11;12.50;;;11.23;;
68690;SDS011;55675;49.588;8.640;2022-08-19T01:38:39;12.80;;;11.50;;
68690;SDS011;55675;49.588;8.640;2022-08-19T01:41:08;12.00;;;10.80;;
68690;SDS011;55675;49.588;8.640;2022-08-19T01:43:34;14.20;;;11.90;;
68690;SDS011;55675;49.588;8.640;2022-08-19T01:46:00;12.53;;;11.23;;
68690;SDS011;55675;49.588;8.640;2022-08-19T01:48:32;15.47;;;12.50;;
68690;SDS011;55675;49.588;8.640;2022-08-19T01:51:02;14.40;;;12.77;;
68690;SDS011;55675;49.588;8.640;2022-08-19T01:53:28;17.63;;;12.50;;
68690;SDS011;55675;49.588;8.640;2022-08-19T01:55:54;14.47;;;12.97;;
68690;SDS011;55675;49.588;8.640;2022-08-19T01:58:21;14.90;;;12.83;;
68690;SDS011;55675;49.588;8.640;2022-08-19T02:00:50;13.40;;;12.00;;
68690;SDS011;55675;49.588;8.640;2022-08-19T02:03:16;15.63;;;12.73;;
68690;SDS011;55675;49.588;8.640;2022-08-19T02:05:42;14.57;;;12.80;;
68690;SDS011;55675;49.588;8.640;2022-08-19T02:08:08;14.23;;;12.20;;
68690;SDS011;55675;49.588;8.640;2022-08-19T02:10:37;13.63;;;12.17;;
68690;SDS011;55675;49.588;8.640;2022-08-19T02:13:05;14.63;;;13.00;;
68690;SDS011;55675;49.588;8.640;2022-08-19T02:15:31;13.87;;;12.47;;
68690;SDS011;55675;49.588;8.640;2022-08-19T02:17:56;14.97;;;12.50;;
68690;SDS011;55675;49.588;8.640;2022-08-19T02:20:23;14.80;;;12.93;;
68690;SDS011;55675;49.588;8.640;2022-08-19T02:22:48;15.53;;;12.63;;
68690;SDS011;55675;49.588;8.640;2022-08-19T02:25:14;14.17;;;12.10;;
68690;SDS011;55675;49.588;8.640;2022-08-19T02:27:40;15.00;;;13.37;;
68690;SDS011;55675;49.588;8.640;2022-08-19T02:30:09;15.30;;;13.40;;
68690;SDS011;55675;49.588;8.640;2022-08-19T02:32:37;15.13;;;12.83;;
68690;SDS011;55675;49.588;8.640;2022-08-19T02:35:03;13.57;;;12.10;;
68690;SDS011;55675;49.588;8.640;2022-08-19T02:37:29;14.30;;;12.07;;
68690;SDS011;55675;49.588;8.640;2022-08-19T02:40:13;14.17;;;12.77;;
68690;SDS011;55675;49.588;8.640;2022-08-19T02:42:39;14.60;;;12.80;;
68690;SDS011;55675;49.588;8.640;2022-08-19T02:45:05;14.23;;;12.77;;
68690;SDS011;55675;49.588;8.640;2022-08-19T02:47:32;16.23;;;13.57;;
68690;SDS011;55675;49.588;8.640;2022-08-19T02:50:00;14.47;;;12.70;;
68690;SDS011;55675;49.588;8.640;2022-08-19T02:52:26;15.70;;;12.77;;
68690;SDS011;55675;49.588;8.640;2022-08-19T02:54:52;14.77;;;13.17;;
68690;SDS011;55675;49.588;8.640;2022-08-19T02:57:17;13.70;;;12.30;;
68690;SDS011;55675;49.588;8.640;2022-08-19T02:59:43;14.33;;;12.93;;
68690;SDS011;55675;49.588;8.640;2022-08-19T03:02:08;15.10;;;13.07;;
68690;SDS011;55675;49.588;8.640;2022-08-19T03:04:34;14.37;;;12.87;;
68690;SDS011;55675;49.588;8.640;2022-08-19T03:06:59;14.53;;;12.77;;
68690;SDS011;55675;49.588;8.640;2022-08-19T03:09:25;14.80;;;13.10;;
68690;SDS011;55675;49.588;8.640;2022-08-19T03:11:50;15.63;;;13.07;;
68690;SDS011;55675;49.588;8.640;2022-08-19T03:14:16;15.73;;;12.87;;
68690;SDS011;55675;49.588;8.640;2022-08-19T03:16:52;13.90;;;12.37;;
68690;SDS011;55675;49.588;8.640;2022-08-19T03:19:17;15.30;;;13.70;;
68690;SDS011;55675;49.588;8.640;2022-08-19T03:21:44;14.60;;;13.00;;
68690;SDS011;55675;49.588;8.640;2022-08-19T03:24:11;14.93;;;13.37;;
68690;SDS011;55675;49.588;8.640;2022-08-19T03:26:39;16.37;;;14.40;;
68690;SDS011;55675;49.588;8.640;2022-08-19T03:29:06;18.57;;;14.97;;
68690;SDS011;55675;49.588;8.640;2022-08-19T03:31:33;17.77;;;14.63;;
68690;SDS011;55675;49.588;8.640;2022-08-19T03:33:58;17.13;;;14.03;;
68690;SDS011;55675;49.588;8.640;2022-08-19T03:36:25;16.70;;;14.50;;
68690;SDS011;55675;49.588;8.640;2022-08-19T03:38:53;19.20;;;14.83;;
68690;SDS011;55675;49.588;8.640;2022-08-19T03:41:21;18.40;;;14.97;;
68690;SDS011;55675;49.588;8.640;2022-08-19T03:43:57;18.90;;;15.03;;
68690;SDS011;55675;49.588;8.640;2022-08-19T03:48:52;17.43;;;14.10;;
68690;SDS011;55675;49.588;8.640;2022-08-19T03:51:26;17.70;;;14.60;;
68690;SDS011;55675;49.588;8.640;2022-08-19T03:53:54;18.07;;;15.03;;
68690;SDS011;55675;49.588;8.640;2022-08-19T03:56:21;16.90;;;14.87;;
68690;SDS011;55675;49.588;8.640;2022-08-19T03:58:47;16.73;;;14.20;;
68690;SDS011;55675;49.588;8.640;2022-08-19T04:01:15;16.20;;;14.17;;
68690;SDS011;55675;49.588;8.640;2022-08-19T04:03:43;17.97;;;15.03;;
68690;SDS011;55675;49.588;8.640;2022-08-19T04:08:37;16.70;;;14.23;;
68690;SDS011;55675;49.588;8.640;2022-08-19T04:11:08;15.90;;;14.13;;
68690;SDS011;55675;49.588;8.640;2022-08-19T04:13:35;15.83;;;13.97;;
68690;SDS011;55675;49.588;8.640;2022-08-19T04:16:01;16.57;;;14.63;;
68690;SDS011;55675;49.588;8.640;2022-08-19T04:18:27;19.97;;;16.00;;
68690;SDS011;55675;49.588;8.640;2022-08-19T04:20:54;17.33;;;14.80;;
68690;SDS011;55675;49.588;8.640;2022-08-19T04:23:20;17.23;;;14.33;;
68690;SDS011;55675;49.588;8.640;2022-08-19T04:25:46;16.30;;;14.33;;
68690;SDS011;55675;49.588;8.640;2022-08-19T04:28:12;16.13;;;14.43;;
68690;SDS011;55675;49.588;8.640;2022-08-19T04:30:39;16.00;;;14.27;;
68690;SDS011;55675;49.588;8.640;2022-08-19T04:33:05;18.07;;;13.77;;
68690;SDS011;55675;49.588;8.640;2022-08-19T04:35:35;15.00;;;13.30;;
68690;SDS011;55675;49.588;8.640;2022-08-19T04:38:12;15.77;;;14.03;;
68690;SDS011;55675;49.588;8.640;2022-08-19T04:40:49;15.70;;;13.67;;
68690;SDS011;55675;49.588;8.640;2022-08-19T04:43:34;15.63;;;13.53;;
68690;SDS011;55675;49.588;8.640;2022-08-19T04:46:08;14.70;;;13.20;;
68690;SDS011;55675;49.588;8.640;2022-08-19T04:48:37;15.07;;;13.07;;
68690;SDS011;55675;49.588;8.640;2022-08-19T04:51:08;15.60;;;13.30;;
68690;SDS011;55675;49.588;8.640;2022-08-19T04:53:36;15.93;;;13.60;;
68690;SDS011;55675;49.588;8.640;2022-08-19T04:56:10;15.07;;;12.97;;
68690;SDS011;55675;49.588;8.640;2022-08-19T04:58:37;17.47;;;14.33;;
68690;SDS011;55675;49.588;8.640;2022-08-19T05:01:07;17.07;;;14.40;;
68690;SDS011;55675;49.588;8.640;2022-08-19T05:03:35;14.97;;;13.37;;
68690;SDS011;55675;49.588;8.640;2022-08-19T05:06:05;15.63;;;14.03;;
68690;SDS011;55675;49.588;8.640;2022-08-19T05:08:33;15.80;;;13.80;;
68690;SDS011;55675;49.588;8.640;2022-08-19T05:11:01;16.53;;;14.73;;
68690;SDS011;55675;49.588;8.640;2022-08-19T05:13:36;15.73;;;14.03;;
68690;SDS011;55675;49.588;8.640;2022-08-19T05:16:03;17.93;;;15.33;;
68690;SDS011;55675;49.588;8.640;2022-08-19T05:18:29;16.07;;;13.40;;
68690;SDS011;55675;49.588;8.640;2022-08-19T05:21:15;15.40;;;13.80;;
68690;SDS011;55675;49.588;8.640;2022-08-19T05:24:00;16.83;;;14.13;;
68690;SDS011;55675;49.588;8.640;2022-08-19T05:26:27;15.60;;;13.60;;
68690;SDS011;55675;49.588;8.640;2022-08-19T05:28:53;17.03;;;14.60;;
68690;SDS011;55675;49.588;8.640;2022-08-19T05:31:20;15.70;;;13.17;;
68690;SDS011;55675;49.588;8.640;2022-08-19T05:33:46;16.20;;;14.47;;
68690;SDS011;55675;49.588;8.640;2022-08-19T05:36:12;16.23;;;14.07;;
68690;SDS011;55675;49.588;8.640;2022-08-19T05:38:38;17.87;;;13.93;;
68690;SDS011;55675;49.588;8.640;2022-08-19T05:41:10;16.93;;;14.10;;
68690;SDS011;55675;49.588;8.640;2022-08-19T05:43:36;15.33;;;13.50;;
68690;SDS011;55675;49.588;8.640;2022-08-19T05:46:02;17.47;;;14.47;;
68690;SDS011;55675;49.588;8.640;2022-08-19T05:48:32;18.70;;;16.03;;
68690;SDS011;55675;49.588;8.640;2022-08-19T05:50:58;18.00;;;15.07;;
68690;SDS011;55675;49.588;8.640;2022-08-19T05:53:28;18.60;;;14.33;;
68690;SDS011;55675;49.588;8.640;2022-08-19T05:55:53;16.90;;;14.17;;
68690;SDS011;55675;49.588;8.640;2022-08-19T05:58:19;15.90;;;14.20;;
68690;SDS011;55675;49.588;8.640;2022-08-19T06:00:44;15.20;;;13.60;;
68690;SDS011;55675;49.588;8.640;2022-08-19T06:03:10;19.03;;;14.30;;
68690;SDS011;55675;49.588;8.640;2022-08-19T06:05:35;18.73;;;14.23;;
68690;SDS011;55675;49.588;8.640;2022-08-19T06:08:01;16.30;;;14.40;;
68690;SDS011;55675;49.588;8.640;2022-08-19T06:10:27;19.73;;;14.77;;
68690;SDS011;55675;49.588;8.640;2022-08-19T06:12:53;19.07;;;14.47;;
68690;SDS011;55675;49.588;8.640;2022-08-19T06:15:19;19.27;;;15.63;;
68690;SDS011;55675;49.588;8.640;2022-08-19T06:17:44;19.33;;;14.70;;
68690;SDS011;55675;49.588;8.640;2022-08-19T06:20:12;18.07;;;15.37;;
68690;SDS011;55675;49.588;8.640;2022-08-19T06:22:39;18.33;;;15.03;;
68690;SDS011;55675;49.588;8.640;2022-08-19T06:25:06;19.40;;;16.37;;
68690;SDS011;55675;49.588;8.640;2022-08-19T06:27:34;16.77;;;14.97;;
68690;SDS011;55675;49.588;8.640;2022-08-19T06:30:00;17.97;;;16.10;;
68690;SDS011;55675;49.588;8.640;2022-08-19T06:32:26;17.10;;;14.80;;
68690;SDS011;55675;49.588;8.640;2022-08-19T06:34:51;20.10;;;15.67;;
68690;SDS011;55675;49.588;8.640;2022-08-19T06:37:17;19.07;;;15.60;;
68690;SDS011;55675;49.588;8.640;2022-08-19T06:39:43;16.70;;;14.57;;
68690;SDS011;55675;49.588;8.640;2022-08-19T06:42:09;17.80;;;14.80;;
68690;SDS011;55675;49.588;8.640;2022-08-19T06:44:38;16.43;;;13.83;;
68690;SDS011;55675;49.588;8.640;2022-08-19T06:47:07;15.30;;;12.90;;
68690;SDS011;55675;49.588;8.640;2022-08-19T06:49:35;13.73;;;12.17;;
68690;SDS011;55675;49.588;8.640;2022-08-19T06:52:01;14.60;;;11.97;;
68690;SDS011;55675;49.588;8.640;2022-08-19T06:54:27;14.53;;;13.00;;
68690;SDS011;55675;49.588;8.640;2022-08-19T06:56:54;13.80;;;12.33;;
68690;SDS011;55675;49.588;8.640;2022-08-19T06:59:22;13.07;;;11.77;;
68690;SDS011;55675;49.588;8.640;2022-08-19T07:01:52;12.67;;;11.40;;
68690;SDS011;55675;49.588;8.640;2022-08-19T07:04:20;14.27;;;12.47;;
68690;SDS011;55675;49.588;8.640;2022-08-19T07:06:48;13.77;;;12.47;;
